createdAt,value
2022-12-23T00:01:32.401Z,9.00
2022-12-23T00:06:18.107Z,9.10
2022-12-23T00:11:03.825Z,9.20
2022-12-23T00:15:47.357Z,9.00
2022-12-23T00:20:30.839Z,9.40
2022-12-23T00:25:15.378Z,9.30
2022-12-23T00:30:00.343Z,9.40
2022-12-23T00:34:43.891Z,9.50
2022-12-23T00:39:45.127Z,9.60
2022-12-23T00:44:29.009Z,9.60
2022-12-23T00:49:32.945Z,9.50
2022-12-23T00:54:16.515Z,9.50
2022-12-23T00:59:00.857Z,9.60
2022-12-23T01:04:01.158Z,9.60
2022-12-23T01:08:46.268Z,9.60
2022-12-23T01:13:30.144Z,9.40
2022-12-23T01:18:13.729Z,9.40
2022-12-23T01:22:57.176Z,9.30
2022-12-23T01:27:42.252Z,9.10
2022-12-23T01:32:25.908Z,9.20
2022-12-23T01:37:09.453Z,9.30
2022-12-23T01:42:10.331Z,9.20
2022-12-23T01:46:55.266Z,9.30
2022-12-23T01:51:38.723Z,9.20
2022-12-23T01:56:26.437Z,9.20
2022-12-23T02:01:27.885Z,9.30
2022-12-23T02:06:35.436Z,9.30
2022-12-23T02:11:37.854Z,9.30
2022-12-23T02:16:21.550Z,9.10
2022-12-23T02:21:39.709Z,8.70
2022-12-23T02:26:56.560Z,8.70
2022-12-23T02:31:50.791Z,8.60
2022-12-23T02:36:40.610Z,8.60
2022-12-23T02:41:31.401Z,8.60
2022-12-23T02:46:23.620Z,8.50
2022-12-23T02:51:11.122Z,8.40
2022-12-23T02:55:55.674Z,8.40
2022-12-23T03:00:41.549Z,8.40
2022-12-23T03:05:27.810Z,8.40
2022-12-23T03:10:23.629Z,8.30
2022-12-23T03:15:18.395Z,8.30
2022-12-23T03:20:14.880Z,8.30
2022-12-23T03:25:05.719Z,8.30
2022-12-23T03:29:58.560Z,8.30
2022-12-23T03:34:49.518Z,8.30
2022-12-23T03:39:44.691Z,8.30
2022-12-23T03:44:32.157Z,8.40
2022-12-23T04:01:28.791Z,8.40
2022-12-23T04:19:13.448Z,8.50
2022-12-23T04:23:58.445Z,8.10
2022-12-23T04:28:41.967Z,8.00
2022-12-23T04:33:25.928Z,8.00
2022-12-23T04:38:09.527Z,8.00
2022-12-23T04:42:54.541Z,8.00
2022-12-23T04:47:38.077Z,8.00
2022-12-23T04:52:21.678Z,8.00
2022-12-23T04:57:05.478Z,8.00
2022-12-23T05:01:51.571Z,8.00
2022-12-23T05:06:35.923Z,7.90
2022-12-23T05:11:19.448Z,7.80
2022-12-23T05:16:02.989Z,7.80
2022-12-23T05:20:48.195Z,7.70
2022-12-23T05:25:31.795Z,7.80
2022-12-23T05:30:15.396Z,7.80
2022-12-23T05:34:59.579Z,7.80
2022-12-23T05:39:44.740Z,7.80
2022-12-23T05:44:28.298Z,7.80
2022-12-23T05:49:12.188Z,7.80
2022-12-23T05:53:55.694Z,7.90
2022-12-23T05:58:40.640Z,7.80
2022-12-23T06:03:25.094Z,7.80
2022-12-23T06:08:08.841Z,7.80
2022-12-23T06:12:52.481Z,7.80
2022-12-23T06:17:37.886Z,8.00
2022-12-23T06:22:21.996Z,7.90
2022-12-23T06:27:05.659Z,7.90
2022-12-23T06:31:49.491Z,7.80
2022-12-23T06:36:34.618Z,8.00
2022-12-23T06:41:18.377Z,8.00
2022-12-23T06:46:01.963Z,7.90
2022-12-23T06:50:46.523Z,7.90
2022-12-23T06:55:31.463Z,7.90
2022-12-23T07:00:17.015Z,8.00
2022-12-23T07:05:02.893Z,7.90
2022-12-23T07:09:46.521Z,8.00
2022-12-23T07:14:31.452Z,8.00
2022-12-23T07:19:15.086Z,7.90
2022-12-23T07:23:58.886Z,8.00
2022-12-23T07:28:44.308Z,8.00
2022-12-23T07:33:29.332Z,8.00
2022-12-23T07:38:12.973Z,8.00
2022-12-23T07:42:58.722Z,8.00
2022-12-23T07:47:42.313Z,8.00
2022-12-23T07:52:27.408Z,8.00
2022-12-23T07:57:10.911Z,8.10
2022-12-23T08:01:55.253Z,8.10
2022-12-23T08:06:38.865Z,8.10
2022-12-23T08:11:23.821Z,8.10
2022-12-23T08:16:08.360Z,8.00
2022-12-23T08:20:59.501Z,8.00
2022-12-23T08:25:43.002Z,8.10
2022-12-23T08:30:27.918Z,8.20
2022-12-23T08:35:11.643Z,8.30
2022-12-23T08:39:55.577Z,8.30
2022-12-23T08:44:39.136Z,8.30
2022-12-23T08:49:24.753Z,8.40
2022-12-23T08:54:08.356Z,8.50
2022-12-23T08:58:53.396Z,8.40
2022-12-23T09:03:38.560Z,8.40
2022-12-23T09:08:23.883Z,8.40
2022-12-23T09:13:07.436Z,8.40
2022-12-23T09:17:51.438Z,8.30
2022-12-23T09:22:35.328Z,8.30
2022-12-23T09:27:20.416Z,8.40
2022-12-23T09:32:03.959Z,8.40
2022-12-23T09:36:53.415Z,8.50
2022-12-23T09:41:56.325Z,8.50
2022-12-23T09:46:49.332Z,8.50
2022-12-23T09:51:34.272Z,8.40
2022-12-23T09:56:26.429Z,8.40
2022-12-23T10:01:20.133Z,8.40
2022-12-23T10:06:12.369Z,8.40
2022-12-23T10:11:00.388Z,8.40
2022-12-23T10:15:49.374Z,8.50
2022-12-23T10:20:40.736Z,8.70
2022-12-23T10:25:31.408Z,8.60
2022-12-23T10:35:33.066Z,8.80
2022-12-23T10:40:24.647Z,8.90
2022-12-23T10:45:28.465Z,8.90
2022-12-23T10:50:39.499Z,9.00
2022-12-23T10:55:33.281Z,9.00
2022-12-23T11:00:24.474Z,9.00
2022-12-23T11:05:18.224Z,9.00
2022-12-23T11:10:05.375Z,9.10
2022-12-23T11:14:54.002Z,9.10
2022-12-23T11:19:39.676Z,9.10
2022-12-23T11:24:24.993Z,9.20
2022-12-23T11:29:12.148Z,9.30
2022-12-23T11:33:59.905Z,9.20
2022-12-23T11:38:53.029Z,9.10
2022-12-23T11:43:36.620Z,9.00
2022-12-23T11:48:29.695Z,9.00
2022-12-23T11:53:15.871Z,9.00
2022-12-23T11:58:01.856Z,9.10
2022-12-23T12:02:47.558Z,9.10
2022-12-23T12:07:32.811Z,9.10
2022-12-23T12:12:19.466Z,9.20
2022-12-23T12:17:13.029Z,9.20
2022-12-23T12:22:02.074Z,9.20
2022-12-23T12:26:47.303Z,9.10
2022-12-23T12:31:35.085Z,9.20
2022-12-23T12:36:29.138Z,9.30
2022-12-23T12:41:20.384Z,9.50
2022-12-23T12:46:23.941Z,9.30
2022-12-23T12:51:16.242Z,9.30
2022-12-23T12:56:09.209Z,9.30
2022-12-23T13:01:05.275Z,9.30
2022-12-23T13:06:01.236Z,9.30
2022-12-23T13:10:50.865Z,9.30
2022-12-23T13:15:44.345Z,9.30
2022-12-23T13:20:34.614Z,9.30
2022-12-23T13:25:22.927Z,9.30
2022-12-23T13:30:13.420Z,9.20
2022-12-23T13:35:05.031Z,9.10
2022-12-23T13:39:58.325Z,9.10
2022-12-23T13:44:42.314Z,9.20
2022-12-23T13:49:37.229Z,9.20
2022-12-23T13:54:37.552Z,9.30
2022-12-23T13:59:21.218Z,9.30
2022-12-23T14:04:31.331Z,9.20
2022-12-23T14:09:17.535Z,9.10
2022-12-23T14:14:05.154Z,9.10
2022-12-23T14:19:23.601Z,9.20
2022-12-23T14:24:35.824Z,9.10
2022-12-23T14:29:52.473Z,9.20
2022-12-23T14:34:36.390Z,9.30
2022-12-23T14:39:33.581Z,9.30
2022-12-23T14:44:22.166Z,9.30
2022-12-23T14:49:40.653Z,9.30
2022-12-23T14:54:50.174Z,9.20
2022-12-23T14:59:49.527Z,9.30
2022-12-23T15:04:44.611Z,9.40
2022-12-23T15:09:32.489Z,9.60
2022-12-23T15:14:24.986Z,9.40
2022-12-23T15:19:19.562Z,9.30
2022-12-23T15:24:04.623Z,9.10
2022-12-23T15:28:48.307Z,9.20
2022-12-23T15:34:02.375Z,9.10
2022-12-23T15:38:40.946Z,9.20
2022-12-23T15:43:26.455Z,9.40
2022-12-23T15:48:25.753Z,9.50
2022-12-23T15:53:10.964Z,9.50
2022-12-23T15:57:55.417Z,9.60
2022-12-23T16:03:02.153Z,9.60
2022-12-23T16:07:46.252Z,9.50
2022-12-23T16:12:32.420Z,9.60
2022-12-23T16:17:24.131Z,9.60
2022-12-23T16:22:19.914Z,9.40
2022-12-23T16:27:03.547Z,9.60
2022-12-23T16:31:54.312Z,9.50
2022-12-23T16:36:41.183Z,9.40
2022-12-23T16:41:26.340Z,9.50
2022-12-23T16:46:16.279Z,9.40
2022-12-23T16:51:00.618Z,9.50
2022-12-23T16:55:51.123Z,9.40
2022-12-23T17:00:41.536Z,9.60
2022-12-23T17:05:25.590Z,9.80
2022-12-23T17:10:11.332Z,9.70
2022-12-23T17:14:56.037Z,9.70
2022-12-23T17:19:41.003Z,9.80
2022-12-23T17:24:27.533Z,9.90
2022-12-23T17:29:13.080Z,9.90
2022-12-23T17:33:57.632Z,9.80
2022-12-23T17:38:43.073Z,9.80
2022-12-23T17:43:28.023Z,9.80
2022-12-23T17:48:19.722Z,10.00
2022-12-23T17:53:09.436Z,9.90
2022-12-23T17:57:55.172Z,10.10
2022-12-23T18:02:40.459Z,10.10
2022-12-23T18:07:24.140Z,10.10
2022-12-23T18:12:08.518Z,10.10
2022-12-23T18:16:54.560Z,10.00
2022-12-23T18:21:38.271Z,10.00
2022-12-23T18:26:22.173Z,10.00
2022-12-23T18:31:06.172Z,10.00
2022-12-23T18:35:51.725Z,10.20
2022-12-23T18:40:35.358Z,10.10
2022-12-23T18:45:32.645Z,10.40
2022-12-23T18:50:16.289Z,10.50
2022-12-23T18:55:02.108Z,10.70
2022-12-23T18:59:45.751Z,10.40
2022-12-23T19:04:29.884Z,10.40
2022-12-23T19:09:18.366Z,10.50
2022-12-23T19:14:04.001Z,10.40
2022-12-23T19:18:48.907Z,10.30
2022-12-23T19:23:32.768Z,10.40
2022-12-23T19:28:16.929Z,10.50
2022-12-23T19:33:01.921Z,11.00
2022-12-23T19:37:45.531Z,11.50
2022-12-23T19:42:29.893Z,12.00
2022-12-23T19:47:14.912Z,11.70
2022-12-23T19:52:00.115Z,11.50
2022-12-23T19:56:43.984Z,12.00
2022-12-23T20:01:28.393Z,12.00
2022-12-23T20:06:16.629Z,11.80
2022-12-23T20:11:10.830Z,11.90
2022-12-23T20:15:57.949Z,11.70
2022-12-23T20:20:45.305Z,11.50
2022-12-23T20:25:29.523Z,11.50
2022-12-23T20:30:14.845Z,11.40
2022-12-23T20:34:58.855Z,11.30
2022-12-23T20:39:42.541Z,11.30
2022-12-23T20:44:35.015Z,11.30
2022-12-23T20:49:21.306Z,11.50
2022-12-23T20:54:05.256Z,11.70
2022-12-23T20:59:02.890Z,11.60
2022-12-23T21:03:46.771Z,12.00
2022-12-23T21:08:33.123Z,12.10
2022-12-23T21:13:17.809Z,12.00
2022-12-23T21:18:01.589Z,12.00
2022-12-23T21:22:45.416Z,12.30
2022-12-23T21:27:30.514Z,12.20
2022-12-23T21:32:14.976Z,12.20
2022-12-23T21:36:58.718Z,12.70
2022-12-23T21:41:45.076Z,11.80
2022-12-23T21:46:30.851Z,11.70
2022-12-23T21:51:16.626Z,11.50
2022-12-23T21:56:03.212Z,12.60
2022-12-23T22:00:49.471Z,12.70
2022-12-23T22:05:34.673Z,13.00
2022-12-23T22:10:18.357Z,12.70
2022-12-23T22:15:05.038Z,12.20
2022-12-23T22:19:53.234Z,11.70
2022-12-23T22:24:38.170Z,11.90
2022-12-23T22:29:21.710Z,11.80
2022-12-23T22:34:07.170Z,11.60
2022-12-23T22:38:54.517Z,11.50
2022-12-23T22:43:39.951Z,11.30
2022-12-23T22:48:23.697Z,11.20
2022-12-23T22:53:08.145Z,11.10
2022-12-23T22:57:51.837Z,11.00
2022-12-23T23:02:36.882Z,11.00
2022-12-23T23:07:20.587Z,11.30
2022-12-23T23:12:04.205Z,11.20
2022-12-23T23:16:47.967Z,11.10
2022-12-23T23:21:34.628Z,11.00
2022-12-23T23:26:18.685Z,11.10
2022-12-23T23:31:32.063Z,11.10
2022-12-23T23:36:07.631Z,11.00
2022-12-23T23:40:54.293Z,11.00
2022-12-23T23:45:37.846Z,11.30
2022-12-23T23:50:21.498Z,11.70
2022-12-23T23:55:05.641Z,11.70
2022-12-23T23:59:51.091Z,11.60
